sensor_id;sensor_type;location;lat;lon;timestamp;pressure;altitude;pressure_sealevel;temperature;humidity
60427;BME280;46274;47.168;27.604;2022-09-24T00:04:37;100011.19;;;8.52;72.66
60427;BME280;46274;47.168;27.604;2022-09-24T00:10:41;100080.16;;;8.98;72.60
60427;BME280;46274;47.168;27.604;2022-09-24T00:16:43;100077.81;;;8.94;73.16
60427;BME280;46274;47.168;27.604;2022-09-24T00:22:46;100076.63;;;8.97;72.60
60427;BME280;46274;47.168;27.604;2022-09-24T00:28:51;100005.59;;;8.54;72.69
60427;BME280;46274;47.168;27.604;2022-09-24T00:34:53;100050.06;;;8.76;73.24
60427;BME280;46274;47.168;27.604;2022-09-24T00:40:55;100014.03;;;8.51;73.35
60427;BME280;46274;47.168;27.604;2022-09-24T00:46:57;100048.41;;;8.83;73.03
60427;BME280;46274;47.168;27.604;2022-09-24T00:53:11;99978.88;;;8.35;73.67
60427;BME280;46274;47.168;27.604;2022-09-24T00:59:17;100000.72;;;8.49;73.03
60427;BME280;46274;47.168;27.604;2022-09-24T01:05:20;100001.09;;;8.55;73.24
60427;BME280;46274;47.168;27.604;2022-09-24T01:17:45;100046.19;;;8.79;72.97
60427;BME280;46274;47.168;27.604;2022-09-24T01:30:04;100039.94;;;8.70;73.40
60427;BME280;46274;47.168;27.604;2022-09-24T01:36:08;100039.44;;;8.83;72.96
60427;BME280;46274;47.168;27.604;2022-09-24T01:42:11;100019.16;;;8.70;73.10
60427;BME280;46274;47.168;27.604;2022-09-24T01:48:14;100035.03;;;8.73;73.18
60427;BME280;46274;47.168;27.604;2022-09-24T01:54:41;100046.19;;;8.79;73.35
60427;BME280;46274;47.168;27.604;2022-09-24T02:00:46;100017.28;;;8.55;73.55
60427;BME280;46274;47.168;27.604;2022-09-24T02:06:56;100053.75;;;8.67;73.68
60427;BME280;46274;47.168;27.604;2022-09-24T02:13:05;100040.00;;;8.44;73.63
60427;BME280;46274;47.168;27.604;2022-09-24T02:19:10;100015.97;;;8.24;73.40
60427;BME280;46274;47.168;27.604;2022-09-24T02:25:19;100058.41;;;8.48;73.69
60427;BME280;46274;47.168;27.604;2022-09-24T02:31:31;100000.19;;;8.03;72.91
60427;BME280;46274;47.168;27.604;2022-09-24T02:37:40;100066.94;;;8.36;73.17
60427;BME280;46274;47.168;27.604;2022-09-24T02:43:42;100048.16;;;8.26;73.10
60427;BME280;46274;47.168;27.604;2022-09-24T02:49:44;100018.06;;;8.04;73.68
60427;BME280;46274;47.168;27.604;2022-09-24T02:55:46;99996.59;;;7.95;73.13
60427;BME280;46274;47.168;27.604;2022-09-24T03:08:23;100005.56;;;7.69;74.40
60427;BME280;46274;47.168;27.604;2022-09-24T03:14:28;100078.84;;;8.17;74.43
60427;BME280;46274;47.168;27.604;2022-09-24T03:20:30;100012.78;;;7.95;73.54
60427;BME280;46274;47.168;27.604;2022-09-24T03:26:34;100087.19;;;8.32;73.49
60427;BME280;46274;47.168;27.604;2022-09-24T03:32:39;100004.47;;;7.80;73.33
60427;BME280;46274;47.168;27.604;2022-09-24T03:38:45;100084.06;;;8.18;73.28
60427;BME280;46274;47.168;27.604;2022-09-24T03:44:49;100016.66;;;7.66;73.06
60427;BME280;46274;47.168;27.604;2022-09-24T03:50:55;100086.63;;;7.94;73.29
60427;BME280;46274;47.168;27.604;2022-09-24T03:56:57;100014.88;;;7.49;73.66
60427;BME280;46274;47.168;27.604;2022-09-24T04:02:58;100032.41;;;7.53;73.60
60427;BME280;46274;47.168;27.604;2022-09-24T04:09:00;100082.91;;;7.95;73.04
60427;BME280;46274;47.168;27.604;2022-09-24T04:15:03;100101.00;;;7.76;73.34
60427;BME280;46274;47.168;27.604;2022-09-24T04:21:05;100031.28;;;7.37;73.16
60427;BME280;46274;47.168;27.604;2022-09-24T04:27:07;100079.06;;;7.71;73.13
60427;BME280;46274;47.168;27.604;2022-09-24T04:33:09;100107.78;;;7.80;73.75
60427;BME280;46274;47.168;27.604;2022-09-24T04:39:12;100069.50;;;7.77;72.77
60427;BME280;46274;47.168;27.604;2022-09-24T04:45:14;100103.38;;;7.79;72.86
60427;BME280;46274;47.168;27.604;2022-09-24T04:51:20;99987.91;;;7.05;73.26
60427;BME280;46274;47.168;27.604;2022-09-24T04:57:23;100094.34;;;7.89;73.51
60427;BME280;46274;47.168;27.604;2022-09-24T05:16:14;100078.53;;;8.54;72.49
60427;BME280;46274;47.168;27.604;2022-09-24T05:22:16;100073.91;;;8.81;71.56
60427;BME280;46274;47.168;27.604;2022-09-24T05:28:18;100103.31;;;9.08;71.99
60427;BME280;46274;47.168;27.604;2022-09-24T05:34:36;100135.00;;;9.57;70.33
60427;BME280;46274;47.168;27.604;2022-09-24T05:40:38;100135.47;;;9.93;70.01
60427;BME280;46274;47.168;27.604;2022-09-24T05:53:55;100143.72;;;10.24;67.16
60427;BME280;46274;47.168;27.604;2022-09-24T05:59:57;100072.03;;;10.04;67.33
60427;BME280;46274;47.168;27.604;2022-09-24T06:06:00;100066.09;;;10.09;66.04
60427;BME280;46274;47.168;27.604;2022-09-24T06:25:26;100127.41;;;10.97;64.14
60427;BME280;46274;47.168;27.604;2022-09-24T06:31:31;100103.88;;;10.97;63.75
60427;BME280;46274;47.168;27.604;2022-09-24T06:37:34;100155.56;;;11.50;63.75
60427;BME280;46274;47.168;27.604;2022-09-24T06:43:36;100120.09;;;11.28;62.61
60427;BME280;46274;47.168;27.604;2022-09-24T06:49:44;100120.41;;;11.33;62.48
60427;BME280;46274;47.168;27.604;2022-09-24T06:55:46;100120.72;;;11.39;62.18
60427;BME280;46274;47.168;27.604;2022-09-24T07:01:52;100163.50;;;11.74;60.95
60427;BME280;46274;47.168;27.604;2022-09-24T07:07:57;100096.22;;;11.47;61.86
60427;BME280;46274;47.168;27.604;2022-09-24T07:14:03;100166.94;;;12.14;62.32
60427;BME280;46274;47.168;27.604;2022-09-24T07:20:08;100078.13;;;11.62;61.98
60427;BME280;46274;47.168;27.604;2022-09-24T07:26:11;100128.44;;;12.11;61.64
60427;BME280;46274;47.168;27.604;2022-09-24T07:32:16;100170.25;;;12.54;61.85
60427;BME280;46274;47.168;27.604;2022-09-24T07:38:19;100176.06;;;12.81;61.70
60427;BME280;46274;47.168;27.604;2022-09-24T07:44:26;100179.34;;;12.76;60.34
60427;BME280;46274;47.168;27.604;2022-09-24T07:50:32;100158.50;;;12.98;61.11
60427;BME280;46274;47.168;27.604;2022-09-24T08:16:17;100189.09;;;13.73;57.79
60427;BME280;46274;47.168;27.604;2022-09-24T08:22:22;100175.84;;;13.27;56.14
60427;BME280;46274;47.168;27.604;2022-09-24T08:49:16;100122.97;;;13.58;53.02
60427;BME280;46274;47.168;27.604;2022-09-24T08:55:44;100123.56;;;13.74;52.01
60427;BME280;46274;47.168;27.604;2022-09-24T09:08:22;100059.03;;;12.89;53.75
60427;BME280;46274;47.168;27.604;2022-09-24T09:28:26;100173.97;;;15.11;52.47
60427;BME280;46274;47.168;27.604;2022-09-24T09:54:06;100137.50;;;14.14;52.60
60427;BME280;46274;47.168;27.604;2022-09-24T10:07:11;100104.69;;;13.73;50.96
60427;BME280;46274;47.168;27.604;2022-09-24T10:20:26;100186.69;;;14.34;51.70
60427;BME280;46274;47.168;27.604;2022-09-24T10:26:40;100192.19;;;14.13;50.05
60427;BME280;46274;47.168;27.604;2022-09-24T10:33:17;100140.22;;;14.14;50.92
60427;BME280;46274;47.168;27.604;2022-09-24T10:40:11;100129.44;;;14.28;49.75
60427;BME280;46274;47.168;27.604;2022-09-24T12:15:24;100110.03;;;15.60;47.84
60427;BME280;46274;47.168;27.604;2022-09-24T12:21:33;100038.28;;;14.92;45.88
60427;BME280;46274;47.168;27.604;2022-09-24T12:27:48;100020.50;;;14.48;46.27
60427;BME280;46274;47.168;27.604;2022-09-24T12:34:31;100100.13;;;15.26;46.01
60427;BME280;46274;47.168;27.604;2022-09-24T12:41:07;100146.88;;;15.91;44.31
60427;BME280;46274;47.168;27.604;2022-09-24T12:48:09;100036.50;;;15.59;44.66
60427;BME280;46274;47.168;27.604;2022-09-24T13:08:41;100117.72;;;16.70;45.48
60427;BME280;46274;47.168;27.604;2022-09-24T13:21:23;100140.09;;;16.47;45.41
60427;BME280;46274;47.168;27.604;2022-09-24T13:28:00;100088.44;;;15.92;43.71
60427;BME280;46274;47.168;27.604;2022-09-24T13:40:18;100129.53;;;16.64;43.18
